ADDS METAR Data INFO
IDs: Format: Raw Decoded Include TAF

Data at: 2052 UTC 26 May 2017

KDKR 262035Z AUTO 20012G17KT 10SM FEW001 SCT016 BKN040 31/23 A2987 RMK AO2
KDKR 262015Z AUTO 18012G18KT 10SM SCT016 BKN036 BKN055 32/23 A2988 RMK AO2
KDKR 261955Z AUTO 22013G20KT 10SM FEW001 FEW020 SCT049 31/23 A2989 RMK AO2
KDKR 261935Z AUTO 20013G20KT 10SM FEW001 SCT016 BKN055 30/23 A2989 RMK AO2
KDKR 261915Z AUTO 18016G20KT 10SM FEW001 SCT016 SCT029 30/23 A2989 RMK AO2
KDKR 261855Z AUTO 19016G22KT 10SM FEW001 SCT016 SCT029 29/23 A2990 RMK AO2
KDKR 261815Z AUTO 19012G19KT 10SM SCT001 SCT016 BKN029 29/23 A2991 RMK AO2
KDKR 261755Z AUTO 19014G20KT 10SM SCT001 BKN027 29/23 A2991 RMK AO2
KDKR 261735Z AUTO 19015G19KT 10SM FEW001 SCT016 SCT027 29/23 A2992 RMK AO2
KDKR 261715Z AUTO 18013G18KT 10SM FEW001 SCT016 BKN026 28/23 A2992 RMK AO2
KDKR 261655Z AUTO 19012G15KT 10SM FEW001 FEW016 BKN027 28/23 A2992 RMK AO2
KDKR 261635Z AUTO 19011G18KT 10SM FEW017 SCT024 BKN030 27/23 A2992 RMK AO2
KDKR 261615Z AUTO 19009G15KT 10SM FEW001 BKN019 BKN030 27/23 A2992 RMK AO2
KDKR 261555Z AUTO 19012G16KT 10SM FEW001 BKN019 BKN037 27/23 A2992 RMK AO2
KDKR 261535Z AUTO 19011G15KT 10SM BKN015 BKN024 OVC035 27/23 A2991 RMK AO2
KDKR 261515Z AUTO 18007KT 10SM BKN015 BKN022 25/22 A2992 RMK AO2
KDKR 261455Z AUTO 18009KT 10SM BKN015 OVC034 24/22 A2991 RMK AO2
KDKR 261435Z AUTO 18011G14KT 10SM BKN015 OVC034 25/22 A2991 RMK AO2
KDKR 261415Z AUTO 18010KT 10SM SCT017 OVC034 24/22 A2990 RMK AO2
KDKR 261355Z AUTO 17007KT 10SM BKN032 24/21 A2991 RMK AO2
KDKR 261335Z AUTO 17007KT 10SM FEW019 BKN032 23/21 A2990 RMK AO2
KDKR 261315Z AUTO 17007KT 10SM OVC030 23/20 A2990 RMK AO2
KDKR 261255Z AUTO 18006KT 10SM OVC028 23/20 A2990 RMK AO2
KDKR 261235Z AUTO 18006KT 10SM OVC026 22/20 A2989 RMK AO2
KDKR 261215Z AUTO 16006KT 10SM OVC024 22/20 A2988 RMK AO2
KDKR 261155Z AUTO 18006KT 10SM OVC022 22/20 A2987 RMK AO2
KDKR 261135Z AUTO 17008KT 10SM OVC022 22/20 A2986 RMK AO2
KDKR 261115Z AUTO 17006KT 10SM OVC022 21/19 A2986 RMK AO2
KDKR 261055Z AUTO 17007KT 10SM OVC020 21/19 A2986 RMK AO2
KDKR 261035Z AUTO 17006KT 10SM OVC018 21/19 A2986 RMK AO2
KDKR 261015Z AUTO 18005KT 10SM OVC018 21/19 A2986 RMK AO2
KDKR 260955Z AUTO 17005KT 10SM OVC016 20/19 A2985 RMK AO2
KDKR 260935Z AUTO 18005KT 10SM OVC016 20/19 A2985 RMK AO2
KDKR 260915Z AUTO 18006KT 10SM OVC018 20/18 A2984 RMK AO2
KDKR 260855Z AUTO 19007KT 10SM OVC018 20/18 A2984 RMK AO2
KDKR 260835Z AUTO 19007KT 10SM SCT018 20/18 A2983 RMK AO2
KDKR 260815Z AUTO 18006KT 10SM CLR 20/18 A2982 RMK AO2
KDKR 260755Z AUTO 17008KT 10SM CLR 20/18 A2981 RMK AO2
KDKR 260735Z AUTO 17007KT 10SM CLR 20/18 A2981 RMK AO2
KDKR 260715Z AUTO 17007KT 10SM CLR 20/17 A2981 RMK AO2
KDKR 260655Z AUTO 17007KT 10SM CLR 20/17 A2981 RMK AO2
KDKR 260635Z AUTO 16006KT 10SM CLR 20/17 A2981 RMK AO2
KDKR 260615Z AUTO 17006KT 10SM CLR 21/16 A2981 RMK AO2
KDKR 260555Z AUTO 17006KT 10SM CLR 21/16 A2981 RMK AO2
KDKR 260535Z AUTO 17007KT 10SM CLR 22/16 A2981 RMK AO2
KDKR 260515Z AUTO 17007KT 10SM CLR 22/15 A2980 RMK AO2
KDKR 260455Z AUTO 17008KT 10SM CLR 22/15 A2980 RMK AO2
KDKR 260435Z AUTO 17008KT 10SM CLR 23/15 A2980 RMK AO2
KDKR 260415Z AUTO 17008KT 10SM CLR 23/15 A2980 RMK AO2
KDKR 260355Z AUTO 17007KT 10SM CLR 23/15 A2980 RMK AO2
KDKR 260335Z AUTO 17007KT 10SM CLR 24/15 A2980 RMK AO2
KDKR 260315Z AUTO 17009KT 10SM CLR 24/15 A2978 RMK AO2
KDKR 260255Z AUTO 17009KT 10SM CLR 25/15 A2977 RMK AO2
KDKR 260235Z AUTO 17007KT 10SM CLR 25/15 A2976 RMK AO2
KDKR 260215Z AUTO 17007KT 10SM CLR 25/15 A2976 RMK AO2
KDKR 260155Z AUTO 17008KT 10SM CLR 25/15 A2975 RMK AO2
KDKR 260135Z AUTO 18006KT 10SM CLR 25/15 A2974 RMK AO2
KDKR 260115Z AUTO 18007KT 10SM CLR 27/15 A2973 RMK AO2
KDKR 260055Z AUTO 18009KT 10SM CLR 27/16 A2973 RMK AO2
KDKR 260035Z AUTO 17010KT 10SM CLR 28/17 A2972 RMK AO2
KDKR 260015Z AUTO 18008KT 10SM CLR 28/17 A2973 RMK AO2
KDKR 252355Z AUTO 18010G18KT 9SM CLR 29/16 A2973 RMK AO2
KDKR 252335Z AUTO 18010G19KT 10SM CLR 30/17 A2973 RMK AO2
KDKR 252315Z AUTO 18010G17KT 10SM CLR 30/17 A2973 RMK AO2
KDKR 252255Z AUTO 18012G19KT 10SM CLR 30/17 A2973 RMK AO2
KDKR 252235Z AUTO 19014KT 10SM CLR 30/17 A2975 RMK AO2
KDKR 252215Z AUTO 18016G20KT 10SM CLR 31/17 A2975 RMK AO2
KDKR 252155Z AUTO 18012G19KT 10SM CLR 31/17 A2976 RMK AO2
KDKR 252135Z AUTO 19012G19KT 10SM CLR 31/17 A2976 RMK AO2
KDKR 252115Z AUTO 20012G21KT 10SM CLR 31/18 A2977 RMK AO2
KDKR 252055Z AUTO 17009KT 10SM CLR 31/19 A2977 RMK AO2
KDKR 252035Z AUTO 21009G16KT 10SM CLR 31/18 A2977 RMK AO2
KDKR 252015Z AUTO 16010G17KT 10SM CLR 30/18 A2978 RMK AO2
KDKR 251955Z AUTO 18009G16KT 10SM FEW038 30/18 A2979 RMK AO2
KDKR 251935Z AUTO 18012KT 10SM FEW035 SCT046 SCT070 30/18 A2979 RMK AO2
KDKR 251915Z AUTO 18010G14KT 10SM FEW016 30/18 A2980 RMK AO2
KDKR 251855Z AUTO 21011G16KT 10SM CLR 29/17 A2980 RMK AO2
KDKR 251835Z AUTO 19012G20KT 10SM FEW001 29/17 A2980 RMK AO2
KDKR 251815Z AUTO 18013G20KT 10SM FEW001 SCT015 29/17 A2981 RMK AO2
KDKR 251755Z AUTO 19013G18KT 10SM CLR 28/17 A2981 RMK AO2
KDKR 251735Z AUTO 18015G20KT 10SM CLR 28/17 A2981 RMK AO2
KDKR 251715Z AUTO 19014G19KT 170V230 10SM CLR 28/17 A2982 RMK AO2
KDKR 251655Z AUTO 19011G17KT 160V230 10SM CLR 27/17 A2982 RMK AO2
KDKR 251635Z AUTO 20011G21KT 10SM CLR 27/16 A2982 RMK AO2
KDKR 251615Z AUTO 18015G18KT 10SM CLR 27/16 A2982 RMK AO2
KDKR 251555Z AUTO 19013G17KT 10SM CLR 25/17 A2982 RMK AO2
KDKR 251535Z AUTO 18011KT 10SM CLR 25/17 A2982 RMK AO2
KDKR 251515Z AUTO 18009KT 10SM CLR 24/17 A2983 RMK AO2
KDKR 251455Z AUTO 18006KT 10SM CLR 23/17 A2984 RMK AO2
KDKR 251435Z AUTO 19008KT 10SM CLR 22/17 A2984 RMK AO2
KDKR 251415Z AUTO 18006KT 10SM CLR 21/16 A2984 RMK AO2
KDKR 251355Z AUTO 18006KT 10SM CLR 20/15 A2984 RMK AO2
KDKR 251335Z AUTO 16006KT 10SM CLR 19/15 A2984 RMK AO2
KDKR 251315Z AUTO 15003KT 10SM CLR 18/14 A2984 RMK AO2
KDKR 251255Z AUTO 15004KT 10SM CLR 17/13 A2984 RMK AO2
KDKR 251235Z AUTO 14005KT 10SM CLR 17/13 A2983 RMK AO2
KDKR 251215Z AUTO 00000KT 10SM CLR 16/12 A2983 RMK AO2
KDKR 251155Z AUTO 00000KT 10SM CLR 15/12 A2982 RMK AO2
KDKR 251135Z AUTO 13004KT 10SM CLR 15/12 A2982 RMK AO2
KDKR 251115Z AUTO 15004KT 10SM CLR 15/12 A2982 RMK AO2
KDKR 251055Z AUTO 00000KT 10SM CLR 15/12 A2981 RMK AO2
KDKR 251035Z AUTO 13005KT 10SM CLR 15/12 A2980 RMK AO2
KDKR 251015Z AUTO 11005KT 10SM CLR 14/12 A2980 RMK AO2
KDKR 250955Z AUTO 12003KT 10SM CLR 15/12 A2980 RMK AO2
KDKR 250935Z AUTO 00000KT 10SM CLR 15/12 A2979 RMK AO2
KDKR 250915Z AUTO 00000KT 10SM CLR 15/12 A2979 RMK AO2
KDKR 250855Z AUTO 00000KT 10SM CLR 14/12 A2978 RMK AO2


Page loaded:  20:52 UTC  |   01:52 PM Pacific  |   02:52 PM Mountain  |   03:52 PM Central  |   04:52 PM Eastern

 

ADVISORIES

FORECASTS

FORECASTS

OBSERVATIONS

USER TOOLS

ABOUT US